Time;durP1;ratioP1;P1;durP2;ratioP2;P2;SDS_P1;SDS_P2;PMS_P1;PMS_P2;Temp;Humidity;BMP_temperature;BMP_pressure;BME280_temperature;BME280_humidity;BME280_pressure;Samples;Min_cycle;Max_cycle;Signal;HPM_P1;HPM_P2
2022/04/20 00:02:44;;;;;;;35.97;16.00;;;-1.00;93.20;;;;;;4362869;28;659852;-67
2022/04/20 00:05:33;;;;;;;31.27;15.20;;;-1.00;99.90;;;;;;4342212;28;661731;-67
2022/04/20 00:08:21;;;;;;;31.53;12.63;;;-1.10;99.90;;;;;;4338781;28;659427;-67
2022/04/20 00:11:08;;;;;;;30.10;13.00;;;-1.10;1.00;;;;;;4362379;28;660376;-67
2022/04/20 00:13:56;;;;;;;26.90;12.00;;;-1.10;1.00;;;;;;4340309;28;658496;-67
2022/04/20 00:16:43;;;;;;;27.47;12.10;;;-1.10;1.00;;;;;;4361718;28;659183;-67
2022/04/20 00:19:30;;;;;;;27.97;13.03;;;-1.10;1.00;;;;;;4339036;28;659124;-67
2022/04/20 00:22:19;;;;;;;23.37;11.67;;;-1.20;99.90;;;;;;4356184;28;659590;-67
2022/04/20 00:25:07;;;;;;;23.37;11.13;;;-1.20;97.90;;;;;;4334198;28;660625;-67
2022/04/20 00:27:54;;;;;;;22.93;11.77;;;-1.30;1.00;;;;;;4361069;28;660545;-67
2022/04/20 00:30:42;;;;;;;27.93;10.93;;;-1.30;1.00;;;;;;4339814;28;658256;-67
2022/04/20 00:33:29;;;;;;;27.73;12.03;;;-1.30;1.00;;;;;;4356823;28;658547;-68
2022/04/20 00:36:17;;;;;;;22.03;11.47;;;-1.40;99.90;;;;;;4337719;28;658666;-67
2022/04/20 00:39:06;;;;;;;24.10;11.10;;;-1.40;99.90;;;;;;4355809;28;659953;-67
2022/04/20 00:41:53;;;;;;;21.97;11.53;;;-1.40;1.00;;;;;;4334777;28;659886;-67
2022/04/20 00:44:40;;;;;;;23.55;11.10;;;-1.50;1.00;;;;;;4340651;28;658847;-67
2022/04/20 00:47:28;;;;;;;24.10;11.23;;;-1.50;1.00;;;;;;4355651;28;659458;-67
2022/04/20 00:50:15;;;;;;;22.05;10.82;;;-1.50;19.80;;;;;;4344803;28;658856;-67
2022/04/20 00:53:03;;;;;;;20.87;10.07;;;-1.50;99.90;;;;;;4356812;28;661106;-68
2022/04/20 00:55:52;;;;;;;21.73;10.33;;;-1.50;99.90;;;;;;4346133;28;660109;-67
2022/04/20 00:58:40;;;;;;;22.57;10.73;;;-1.40;99.90;;;;;;4355066;28;659282;-68
2022/04/20 01:01:27;;;;;;;24.20;10.53;;;-1.50;1.00;;;;;;4331410;28;661087;-68
2022/04/20 01:04:15;;;;;;;22.30;10.37;;;-1.50;1.00;;;;;;4353574;28;658397;-67
2022/04/20 01:07:09;;;;;;;22.60;10.27;;;-1.50;1.00;;;;;;4336708;28;659837;-67
2022/04/20 01:09:56;;;;;;;20.42;10.10;;;-1.50;99.90;;;;;;4313281;28;659283;-67
2022/04/20 01:12:46;;;;;;;18.87;10.00;;;-1.40;99.90;;;;;;4355152;28;659535;-68
2022/04/20 01:15:34;;;;;;;20.23;9.10;;;-1.40;99.90;;;;;;4334627;28;660701;-67
2022/04/20 01:18:22;;;;;;;19.97;9.33;;;-1.50;99.90;;;;;;4335561;28;658944;-68
2022/04/20 01:21:11;;;;;;;20.43;10.13;;;-1.40;99.90;;;;;;4360400;28;658541;-67
2022/04/20 01:23:58;;;;;;;23.20;10.27;;;-1.40;99.90;;;;;;4337421;28;660878;-67
2022/04/20 01:26:46;;;;;;;18.37;10.00;;;-1.40;99.90;;;;;;4337377;28;659615;-67
2022/04/20 01:29:33;;;;;;;17.97;9.63;;;-1.50;1.00;;;;;;4352147;28;659885;-67
2022/04/20 01:32:21;;;;;;;17.10;10.13;;;-1.40;1.00;;;;;;4337823;28;657609;-67
2022/04/20 01:35:09;;;;;;;20.77;9.70;;;-1.50;1.00;;;;;;4361229;28;659680;-68
2022/04/20 01:37:58;;;;;;;17.07;10.03;;;-1.50;1.00;;;;;;4337933;28;657558;-67
2022/04/20 01:40:45;;;;;;;19.47;10.07;;;-1.50;1.00;;;;;;4340025;28;658490;-67
2022/04/20 01:43:33;;;;;;;21.17;10.70;;;-1.50;1.00;;;;;;4355972;28;659587;-67
2022/04/20 01:46:20;;;;;;;18.67;9.80;;;-1.50;1.00;;;;;;4343685;28;659099;-67
2022/04/20 01:49:08;;;;;;;21.00;10.60;;;-1.50;1.00;;;;;;4359371;28;658821;-67
2022/04/20 01:51:55;;;;;;;24.63;10.67;;;-1.60;1.00;;;;;;4349836;28;658488;-67
2022/04/20 01:54:44;;;;;;;21.07;10.43;;;-1.60;1.00;;;;;;4357986;28;659775;-67
2022/04/20 01:57:33;;;;;;;19.07;10.13;;;-1.60;1.00;;;;;;4336633;28;658489;-67
2022/04/20 02:00:20;;;;;;;21.92;10.02;;;-1.60;1.00;;;;;;4344271;28;658522;-67
2022/04/20 02:03:07;;;;;;;18.97;9.77;;;-1.60;1.00;;;;;;4352568;28;659759;-67
2022/04/20 02:05:54;;;;;;;20.77;9.50;;;-1.60;1.00;;;;;;4362619;28;657461;-68
2022/04/20 02:08:41;;;;;;;19.47;9.93;;;-1.60;1.00;;;;;;4338282;28;658162;-67
2022/04/20 02:11:30;;;;;;;20.07;10.80;;;-1.70;1.00;;;;;;4357900;28;657478;-67
2022/04/20 02:14:17;;;;;;;20.40;10.17;;;-1.70;1.00;;;;;;4334928;28;658825;-68
2022/04/20 02:17:05;;;;;;;21.53;10.03;;;-1.70;1.00;;;;;;4354888;28;658847;-67
2022/04/20 02:19:58;;;;;;;22.73;10.97;;;-1.70;1.00;;;;;;4355144;28;659573;-68
2022/04/20 02:22:45;;;;;;;21.63;10.70;;;-1.80;1.00;;;;;;4324186;28;658691;-67
2022/04/20 02:25:33;;;;;;;27.87;11.70;;;-1.80;1.00;;;;;;4359474;28;659889;-67
2022/04/20 02:28:22;;;;;;;26.63;11.83;;;-1.90;1.00;;;;;;4350362;28;658488;-68
2022/04/20 02:31:09;;;;;;;21.13;11.27;;;-1.80;1.00;;;;;;4358576;28;659255;-68
2022/04/20 02:33:57;;;;;;;28.60;11.73;;;-1.80;1.00;;;;;;4339740;28;659000;-68
2022/04/20 02:36:44;;;;;;;23.33;11.47;;;-1.80;1.00;;;;;;4359091;28;659231;-68
2022/04/20 02:39:31;;;;;;;22.40;11.15;;;-1.90;7.80;;;;;;4341503;28;658517;-67
2022/04/20 02:42:19;;;;;;;22.67;11.77;;;-1.90;21.00;;;;;;4357765;28;659003;-68
2022/04/20 02:45:08;;;;;;;23.10;12.60;;;-1.90;53.70;;;;;;4339052;28;659658;-67
2022/04/20 02:47:55;;;;;;;28.33;13.83;;;-1.80;99.90;;;;;;4340137;28;659894;-67
2022/04/20 02:50:43;;;;;;;31.23;13.13;;;-1.90;99.90;;;;;;4358055;28;661025;-68
2022/04/20 02:53:30;;;;;;;27.30;13.40;;;-1.90;99.90;;;;;;4339599;28;659416;-68
2022/04/20 02:56:18;;;;;;;28.53;13.23;;;-1.90;99.90;;;;;;4358729;28;660642;-67
2022/04/20 02:59:05;;;;;;;31.17;14.40;;;-2.00;99.90;;;;;;4350079;28;659592;-67
2022/04/20 03:01:54;;;;;;;25.47;13.53;;;-2.00;99.90;;;;;;4358396;28;660890;-68
2022/04/20 03:04:41;;;;;;;26.60;13.55;;;-2.00;99.90;;;;;;4340824;28;660339;-68
2022/04/20 03:07:29;;;;;;;31.37;14.17;;;-1.90;99.90;;;;;;4357088;28;659893;-68
2022/04/20 03:10:17;;;;;;;27.17;13.23;;;-2.00;99.90;;;;;;4334086;28;659569;-67
2022/04/20 03:13:04;;;;;;;25.53;12.67;;;-2.00;99.90;;;;;;4357831;28;659842;-68
2022/04/20 03:15:51;;;;;;;27.63;13.20;;;-2.10;99.90;;;;;;4335611;28;659730;-68
2022/04/20 03:18:40;;;;;;;35.23;13.90;;;-2.10;99.90;;;;;;4359321;28;659671;-68
2022/04/20 03:21:28;;;;;;;29.67;14.13;;;-2.10;99.90;;;;;;4335461;28;659854;-68
2022/04/20 03:24:15;;;;;;;31.47;14.20;;;-2.10;99.90;;;;;;4348167;28;660047;-68
2022/04/20 03:27:03;;;;;;;28.73;13.30;;;-2.10;99.90;;;;;;4357291;28;661165;-68
2022/04/20 03:29:50;;;;;;;26.67;12.73;;;-2.20;30.30;;;;;;4343418;28;659985;-67
2022/04/20 03:32:38;;;;;;;29.83;13.30;;;-2.20;29.90;;;;;;4369631;28;660124;-67
2022/04/20 03:35:27;;;;;;;27.20;12.65;;;-2.20;54.00;;;;;;4358346;28;659689;-67
2022/04/20 03:38:14;;;;;;;28.67;13.87;;;-2.20;54.30;;;;;;4365756;28;659754;-67
2022/04/20 03:41:03;;;;;;;29.55;13.43;;;-2.30;61.40;;;;;;4342710;28;660036;-67
2022/04/20 03:43:50;;;;;;;29.77;13.80;;;-2.30;90.50;;;;;;4357491;28;659372;-67
2022/04/20 03:46:38;;;;;;;33.80;14.57;;;-2.30;91.70;;;;;;4366350;28;660462;-67
2022/04/20 03:49:25;;;;;;;28.63;14.07;;;-2.30;56.40;;;;;;4346664;28;659263;-67
2022/04/20 03:52:14;;;;;;;29.07;12.80;;;-2.30;54.50;;;;;;4353456;28;660779;-67
2022/04/20 03:55:01;;;;;;;28.65;13.25;;;-2.30;65.40;;;;;;4340289;28;659633;-67
2022/04/20 03:57:49;;;;;;;31.43;13.90;;;-2.30;99.90;;;;;;4357168;28;660350;-67
2022/04/20 04:00:36;;;;;;;32.10;14.13;;;-2.20;99.90;;;;;;4339064;28;660077;-67
2022/04/20 04:03:23;;;;;;;35.93;14.97;;;-2.10;99.90;;;;;;4362594;28;660350;-67
2022/04/20 04:06:11;;;;;;;32.07;14.73;;;-2.10;99.90;;;;;;4338833;28;659877;-67
2022/04/20 04:08:59;;;;;;;30.77;14.80;;;-2.10;99.90;;;;;;4357106;28;661405;-67
2022/04/20 04:11:47;;;;;;;36.73;16.60;;;-2.10;99.90;;;;;;4339241;28;659499;-67
2022/04/20 04:14:38;;;;;;;36.57;16.77;;;-2.00;87.20;;;;;;4360268;28;659144;-67
2022/04/20 04:17:25;;;;;;;33.57;15.83;;;-2.00;81.40;;;;;;4317716;28;660731;-67
2022/04/20 04:20:13;;;;;;;35.63;16.90;;;-1.90;87.90;;;;;;4354698;28;660083;-67
2022/04/20 04:23:00;;;;;;;35.17;16.20;;;-1.90;92.60;;;;;;4335104;28;661133;-68
2022/04/20 04:25:49;;;;;;;39.47;18.57;;;-1.90;90.20;;;;;;4358306;28;660493;-67
2022/04/20 04:28:36;;;;;;;42.57;20.03;;;-1.80;99.90;;;;;;4337594;28;659795;-67
2022/04/20 04:31:24;;;;;;;44.10;19.53;;;-1.70;99.90;;;;;;4352212;28;660046;-68
2022/04/20 04:34:11;;;;;;;43.77;21.00;;;-1.70;99.90;;;;;;4334832;28;660247;-67
2022/04/20 04:36:58;;;;;;;38.33;16.33;;;-1.60;99.90;;;;;;4352842;28;661143;-67
2022/04/20 04:39:46;;;;;;;43.90;20.90;;;-1.40;99.90;;;;;;4338625;28;659294;-67
2022/04/20 04:42:34;;;;;;;43.27;20.33;;;-1.10;99.90;;;;;;4359777;28;660243;-67
2022/04/20 04:48:39;;;;;;;42.00;17.90;;;-0.80;69.20;;;;;;4332157;28;659767;-67
2022/04/20 04:51:27;;;;;;;46.57;22.40;;;-0.60;35.70;;;;;;4314388;28;660295;-67
2022/04/20 04:54:14;;;;;;;58.13;25.13;;;-0.50;70.40;;;;;;4357672;28;659597;-67
2022/04/20 04:57:01;;;;;;;62.23;27.70;;;-0.30;17.00;;;;;;4335656;28;659905;-67
2022/04/20 04:59:50;;;;;;;49.33;22.17;;;0.00;1.00;;;;;;4356855;28;659739;-67
2022/04/20 05:02:37;;;;;;;64.07;25.73;;;0.10;99.90;;;;;;4336522;28;657765;-68
2022/04/20 05:05:25;;;;;;;62.47;26.07;;;0.50;99.90;;;;;;4354954;28;658722;-67
2022/04/20 05:08:13;;;;;;;46.07;17.17;;;0.50;99.90;;;;;;4351753;28;659163;-67
2022/04/20 05:11:00;;;;;;;55.60;24.30;;;0.50;99.90;;;;;;4344985;28;658210;-67
2022/04/20 05:13:48;;;;;;;77.97;32.90;;;0.60;99.90;;;;;;4356896;28;659241;-67
2022/04/20 05:16:37;;;;;;;85.33;37.00;;;0.70;99.90;;;;;;4348830;28;658496;-67
2022/04/20 05:19:24;;;;;;;53.43;21.07;;;0.70;99.90;;;;;;4360448;28;658126;-67
2022/04/20 05:22:11;;;;;;;99.28;43.08;;;0.80;99.90;;;;;;4334273;28;658866;-67
2022/04/20 05:24:59;;;;;;;91.53;41.90;;;0.90;99.90;;;;;;4350560;28;660621;-68
2022/04/20 05:27:46;;;;;;;96.67;43.20;;;1.00;99.90;;;;;;4332567;28;658951;-67
2022/04/20 05:30:33;;;;;;;106.83;46.67;;;1.00;99.90;;;;;;4360263;28;659586;-68
2022/04/20 05:33:22;;;;;;;75.33;33.13;;;0.90;99.90;;;;;;4338068;28;659609;-67
2022/04/20 05:36:09;;;;;;;101.33;42.73;;;1.00;99.90;;;;;;4353200;28;658663;-67
2022/04/20 05:42:01;;;;;;;120.13;51.97;;;1.00;99.90;;;;;;4307615;28;661130;-68
2022/04/20 05:44:49;;;;;;;129.20;57.03;;;1.10;99.90;;;;;;4354973;28;660109;-67
2022/04/20 05:47:38;;;;;;;122.20;49.57;;;1.10;99.90;;;;;;4337176;28;659489;-68
2022/04/20 05:50:27;;;;;;;136.13;58.83;;;1.00;99.90;;;;;;4339633;28;660552;-68
2022/04/20 05:53:14;;;;;;;135.00;61.37;;;1.10;99.90;;;;;;4353163;28;659416;-68
2022/04/20 05:56:02;;;;;;;134.53;59.20;;;1.20;99.90;;;;;;4333661;28;659924;-68
2022/04/20 05:58:50;;;;;;;128.27;59.67;;;1.20;99.90;;;;;;4358633;28;659838;-68
2022/04/20 06:01:38;;;;;;;148.90;66.43;;;1.30;99.90;;;;;;4337014;28;660388;-67
2022/04/20 06:04:25;;;;;;;138.60;58.93;;;1.20;99.90;;;;;;4353201;28;660300;-68
2022/04/20 06:07:14;;;;;;;143.90;63.37;;;1.20;99.90;;;;;;4356358;28;660470;-68
2022/04/20 06:10:01;;;;;;;139.00;62.40;;;1.20;99.90;;;;;;4336214;28;659880;-68
2022/04/20 06:12:49;;;;;;;135.33;65.03;;;1.30;99.90;;;;;;4359968;28;660392;-67
2022/04/20 06:15:36;;;;;;;117.20;51.50;;;1.30;99.90;;;;;;4336452;28;660303;-67
2022/04/20 06:18:23;;;;;;;132.63;64.32;;;1.40;99.90;;;;;;4359241;28;660593;-68
2022/04/20 06:21:11;;;;;;;153.13;63.40;;;1.40;99.90;;;;;;4339866;28;659624;-67
2022/04/20 06:24:00;;;;;;;124.23;56.73;;;1.50;99.90;;;;;;4356253;28;660848;-68
2022/04/20 06:26:47;;;;;;;149.67;65.83;;;1.40;99.90;;;;;;4341246;28;659854;-68
2022/04/20 06:29:35;;;;;;;83.83;36.33;;;1.40;99.90;;;;;;4357114;28;659877;-68
2022/04/20 06:32:23;;;;;;;140.97;63.90;;;1.30;99.90;;;;;;4362665;28;658892;-68
2022/04/20 06:35:11;;;;;;;132.93;60.10;;;1.40;99.90;;;;;;4338498;28;659838;-68
2022/04/20 06:37:58;;;;;;;124.93;58.07;;;1.50;99.90;;;;;;4357431;28;660287;-68
2022/04/20 06:40:47;;;;;;;138.47;62.90;;;1.50;99.90;;;;;;4339871;28;660780;-67
2022/04/20 06:43:35;;;;;;;141.30;61.43;;;1.60;99.90;;;;;;4359726;28;659508;-68
2022/04/20 06:46:22;;;;;;;86.60;37.53;;;1.60;99.90;;;;;;4335462;28;660912;-67
2022/04/20 06:49:09;;;;;;;120.93;52.97;;;1.60;99.90;;;;;;4354785;28;659117;-67
2022/04/20 07:01:14;;;;;;;141.83;63.53;;;1.60;99.90;;;;;;4332293;28;659998;-68
2022/04/20 07:04:02;;;;;;;134.80;60.47;;;1.70;99.90;;;;;;4335627;28;660066;-68
2022/04/20 07:06:49;;;;;;;130.83;60.37;;;1.80;99.90;;;;;;4360409;28;659487;-68
2022/04/20 07:09:36;;;;;;;132.30;58.07;;;1.90;99.90;;;;;;4338490;28;659669;-68
2022/04/20 07:12:24;;;;;;;136.50;63.47;;;2.00;99.90;;;;;;4353756;28;660089;-68
2022/04/20 07:15:12;;;;;;;58.50;25.23;;;1.90;99.90;;;;;;4335557;28;660174;-67
2022/04/20 07:18:00;;;;;;;123.47;57.23;;;1.90;99.90;;;;;;4352364;28;658928;-67
2022/04/20 07:20:48;;;;;;;128.13;57.37;;;1.90;99.90;;;;;;4356897;28;660260;-67
2022/04/20 07:23:36;;;;;;;126.97;58.93;;;1.80;99.90;;;;;;4340245;28;660147;-68
2022/04/20 07:26:26;;;;;;;128.57;60.20;;;2.00;99.90;;;;;;4362632;28;659957;-68
2022/04/20 07:29:13;;;;;;;130.97;58.47;;;2.20;99.90;;;;;;4330956;28;660175;-67
2022/04/20 07:32:02;;;;;;;88.60;38.80;;;2.10;99.90;;;;;;4333801;28;660217;-68
2022/04/20 07:34:49;;;;;;;122.47;58.00;;;2.10;99.90;;;;;;4355343;28;659676;-68
2022/04/20 07:37:36;;;;;;;134.77;62.67;;;2.20;99.90;;;;;;4333259;28;659483;-68
2022/04/20 07:40:24;;;;;;;138.20;61.93;;;2.10;99.90;;;;;;4354501;28;659987;-68
2022/04/20 07:43:27;;;;;;;114.77;52.93;;;2.20;99.90;;;;;;4333703;28;660171;-67
2022/04/20 07:46:17;;;;;;;135.83;59.60;;;2.30;99.90;;;;;;4334042;28;659635;-68
2022/04/20 07:52:08;;;;;;;133.10;59.20;;;2.40;99.90;;;;;;4335147;28;660776;-68
2022/04/20 07:54:56;;;;;;;92.03;39.37;;;2.50;99.90;;;;;;4337525;28;660856;-68
2022/04/20 07:57:43;;;;;;;132.77;58.57;;;2.50;99.90;;;;;;4354224;28;658595;-67
2022/04/20 08:00:31;;;;;;;128.20;60.57;;;2.60;99.90;;;;;;4338150;28;661023;-68
2022/04/20 08:03:19;;;;;;;131.90;60.07;;;2.50;99.90;;;;;;4356798;28;659928;-68
2022/04/20 08:06:07;;;;;;;122.90;58.97;;;2.60;99.90;;;;;;4336681;28;659736;-67
2022/04/20 08:08:55;;;;;;;93.17;34.73;;;2.70;99.90;;;;;;4352806;28;661421;-68
2022/04/20 08:11:42;;;;;;;118.00;52.83;;;2.60;99.90;;;;;;4335945;28;659525;-67
2022/04/20 08:14:30;;;;;;;132.17;58.93;;;2.60;99.90;;;;;;4357012;28;659832;-68
2022/04/20 08:17:17;;;;;;;130.17;57.30;;;2.70;99.90;;;;;;4334923;28;661480;-67
2022/04/20 08:20:32;;;;;;;120.97;56.70;;;2.70;99.90;;;;;;4353652;28;661112;-68
2022/04/20 08:23:21;;;;;;;104.93;47.30;;;2.70;99.90;;;;;;4332391;28;659779;-68
2022/04/20 08:26:08;;;;;;;93.30;42.47;;;2.80;99.90;;;;;;4331281;28;660428;-68
2022/04/20 08:28:56;;;;;;;120.10;55.13;;;2.80;99.90;;;;;;4333459;28;659306;-68
2022/04/20 08:31:43;;;;;;;112.60;52.33;;;2.80;99.90;;;;;;4357731;28;660836;-68
2022/04/20 08:34:30;;;;;;;85.43;38.70;;;2.90;99.90;;;;;;4337736;28;659745;-68
2022/04/20 08:37:18;;;;;;;92.10;38.23;;;2.80;99.90;;;;;;4355033;28;660754;-67
2022/04/20 08:40:08;;;;;;;102.55;46.00;;;2.80;99.90;;;;;;4339166;28;658512;-68
2022/04/20 08:42:55;;;;;;;111.00;47.07;;;2.80;99.90;;;;;;4334652;28;659804;-67
2022/04/20 08:45:43;;;;;;;108.57;47.90;;;2.80;99.90;;;;;;4355629;28;660950;-67
2022/04/20 08:48:30;;;;;;;95.50;39.13;;;3.00;99.90;;;;;;4342526;28;659499;-68
2022/04/20 08:51:18;;;;;;;93.37;39.23;;;3.00;99.90;;;;;;4354208;28;659461;-67
2022/04/20 08:54:05;;;;;;;51.03;21.80;;;3.00;99.90;;;;;;4335571;28;659464;-67
2022/04/20 08:59:59;;;;;;;91.87;42.67;;;3.20;99.90;;;;;;4331414;28;659129;-68
2022/04/20 09:02:47;;;;;;;78.47;36.20;;;3.40;99.90;;;;;;4333074;28;658825;-67
2022/04/20 09:05:35;;;;;;;91.37;43.80;;;3.40;99.90;;;;;;4356649;28;658755;-68
2022/04/20 09:08:25;;;;;;;65.80;25.03;;;3.60;99.90;;;;;;4334486;28;659274;-67
2022/04/20 09:11:12;;;;;;;90.27;39.60;;;3.40;99.90;;;;;;4331187;28;659607;-67
2022/04/20 09:14:17;;;;;;;91.23;42.83;;;3.50;99.90;;;;;;4353191;28;658369;-68
2022/04/20 09:17:04;;;;;;;53.50;22.17;;;3.60;99.90;;;;;;4330124;28;659036;-68
2022/04/20 09:19:52;;;;;;;93.83;44.20;;;3.70;99.90;;;;;;4338052;28;658490;-68
2022/04/20 09:22:40;;;;;;;56.40;26.47;;;3.90;99.90;;;;;;4356166;28;658785;-68
2022/04/20 09:25:30;;;;;;;89.37;41.90;;;3.90;99.90;;;;;;4356989;28;659196;-67
2022/04/20 09:28:18;;;;;;;58.53;26.73;;;3.90;99.90;;;;;;4333871;28;659097;-67
2022/04/20 09:31:07;;;;;;;50.40;20.77;;;4.00;99.90;;;;;;4338970;28;658439;-68
2022/04/20 09:33:55;;;;;;;66.67;31.83;;;4.00;99.90;;;;;;4356493;28;658639;-68
2022/04/20 09:36:45;;;;;;;53.57;23.60;;;4.00;99.90;;;;;;4338601;28;659328;-67
2022/04/20 09:39:33;;;;;;;51.10;22.17;;;4.00;99.90;;;;;;4336603;28;658706;-68
2022/04/20 09:42:20;;;;;;;69.70;34.40;;;4.10;99.90;;;;;;4349518;28;659049;-68
2022/04/20 09:45:08;;;;;;;72.27;32.97;;;4.20;99.90;;;;;;4353290;28;659486;-68
2022/04/20 09:51:09;;;;;;;63.33;30.17;;;4.50;99.90;;;;;;4314370;28;658721;-68
2022/04/20 09:53:56;;;;;;;56.90;27.87;;;4.50;99.90;;;;;;4337396;28;658650;-68
2022/04/20 09:56:44;;;;;;;50.83;25.57;;;4.60;99.90;;;;;;4356808;28;658730;-68
2022/04/20 09:59:32;;;;;;;48.60;19.30;;;4.70;99.90;;;;;;4337130;28;659047;-68
2022/04/20 10:02:19;;;;;;;56.93;27.17;;;4.80;99.90;;;;;;4358002;28;658689;-67
2022/04/20 10:05:08;;;;;;;42.78;21.88;;;4.80;99.90;;;;;;4338213;28;658584;-68
2022/04/20 10:07:59;;;;;;;31.97;14.97;;;4.70;99.90;;;;;;4332841;28;659904;-67
2022/04/20 10:10:47;;;;;;;29.97;11.23;;;4.80;99.90;;;;;;4336394;28;659030;-68
2022/04/20 10:13:36;;;;;;;44.23;22.10;;;5.10;99.90;;;;;;4358015;28;658843;-68
2022/04/20 10:16:23;;;;;;;45.67;24.23;;;5.10;99.90;;;;;;4338448;28;658818;-68
2022/04/20 10:19:10;;;;;;;51.42;25.38;;;5.40;99.90;;;;;;4340012;28;658920;-67
2022/04/20 10:21:59;;;;;;;45.90;24.30;;;5.60;99.90;;;;;;4349096;28;660240;-68
2022/04/20 10:24:47;;;;;;;49.30;22.20;;;5.70;99.90;;;;;;4337793;28;659177;-68
2022/04/20 10:27:38;;;;;;;46.67;22.47;;;5.90;99.90;;;;;;4361918;28;658428;-68
2022/04/20 10:30:28;;;;;;;43.63;19.63;;;5.90;99.90;;;;;;4300283;28;658916;-68
2022/04/20 10:33:19;;;;;;;43.20;20.17;;;5.80;99.90;;;;;;4325088;28;658666;-68
2022/04/20 10:36:09;;;;;;;42.87;20.97;;;6.20;99.90;;;;;;4337181;28;658794;-68
2022/04/20 10:42:20;;;;;;;24.77;11.93;;;6.30;99.90;;;;;;4964747;27;131437;-69
2022/04/20 10:45:10;;;;;;;37.97;15.97;;;6.10;99.90;;;;;;4422220;27;651447;-68
2022/04/20 10:47:58;;;;;;;43.83;21.23;;;6.40;99.90;;;;;;4473061;27;652300;-69
2022/04/20 10:50:46;;;;;;;43.20;19.40;;;6.70;99.90;;;;;;4459790;27;651099;-69
2022/04/20 10:53:34;;;;;;;43.90;20.30;;;6.50;99.90;;;;;;4480959;27;651975;-69
2022/04/20 10:56:21;;;;;;;38.20;20.80;;;6.70;99.90;;;;;;4460011;27;651415;-69
2022/04/20 10:59:10;;;;;;;41.10;21.87;;;6.80;99.90;;;;;;4480001;27;652179;-69
2022/04/20 11:02:14;;;;;;;36.77;20.57;;;6.80;99.90;;;;;;4455137;27;652665;-69
2022/04/20 11:05:13;;;;;;;34.00;17.20;;;6.90;99.90;;;;;;4433426;27;653704;-69
2022/04/20 11:08:04;;;;;;;38.50;19.73;;;6.80;99.90;;;;;;4459079;27;652302;-68
2022/04/20 11:21:07;;;;;;;36.27;17.80;;;6.30;99.90;;;;;;4435819;27;652690;-69
2022/04/20 11:24:00;;;;;;;35.92;18.23;;;6.30;99.90;;;;;;4443886;28;654527;-69
2022/04/20 11:26:51;;;;;;;25.80;13.83;;;6.50;99.90;;;;;;4452103;28;654202;-68
2022/04/20 11:29:43;;;;;;;31.30;16.57;;;6.50;99.90;;;;;;4466189;27;654190;-68
2022/04/20 11:32:32;;;;;;;28.13;12.93;;;6.60;99.90;;;;;;4447771;27;653621;-69
2022/04/20 11:35:19;;;;;;;32.93;18.07;;;6.50;99.90;;;;;;4480726;27;653554;-68
2022/04/20 11:38:09;;;;;;;34.33;17.73;;;6.40;99.90;;;;;;4429829;28;653701;-68
2022/04/20 11:40:57;;;;;;;24.33;12.37;;;6.30;99.90;;;;;;4435931;28;653842;-69
2022/04/20 11:43:44;;;;;;;31.30;16.30;;;6.30;99.90;;;;;;4466899;28;654506;-69
2022/04/20 11:46:34;;;;;;;34.50;17.17;;;6.40;99.90;;;;;;4442283;28;653969;-69
2022/04/20 11:49:23;;;;;;;32.17;17.00;;;6.40;99.90;;;;;;4443634;28;653439;-68
2022/04/20 11:52:11;;;;;;;31.80;16.87;;;6.50;99.90;;;;;;4449814;28;653796;-68
2022/04/20 11:55:04;;;;;;;25.07;14.17;;;6.60;99.90;;;;;;4449629;28;654446;-68
2022/04/20 11:57:52;;;;;;;29.07;15.17;;;6.70;99.90;;;;;;4405979;28;653444;-69
2022/04/20 12:00:41;;;;;;;24.30;14.20;;;6.50;99.90;;;;;;4450906;28;653156;-69
2022/04/20 12:03:32;;;;;;;25.17;14.10;;;6.40;99.90;;;;;;4427930;28;654382;-69
2022/04/20 12:06:24;;;;;;;29.20;15.03;;;6.50;99.90;;;;;;4436165;28;653519;-69
2022/04/20 12:09:11;;;;;;;14.97;5.47;;;6.50;99.90;;;;;;4406064;28;653506;-69
2022/04/20 12:12:00;;;;;;;20.03;9.50;;;6.40;99.90;;;;;;4457619;28;652269;-69
2022/04/20 12:14:47;;;;;;;26.77;11.80;;;6.40;99.90;;;;;;4438680;28;652171;-69
2022/04/20 12:17:35;;;;;;;22.87;11.77;;;6.40;99.90;;;;;;4455702;28;652501;-69
2022/04/20 12:20:22;;;;;;;23.63;12.43;;;6.50;99.90;;;;;;4430750;28;654039;-68
2022/04/20 12:23:11;;;;;;;22.27;11.25;;;6.40;99.90;;;;;;4450214;28;653699;-69
2022/04/20 12:25:58;;;;;;;23.90;11.73;;;6.50;99.90;;;;;;4423973;28;654469;-68
2022/04/20 12:28:45;;;;;;;22.95;11.27;;;6.50;99.90;;;;;;4435293;28;653442;-69
2022/04/20 12:31:33;;;;;;;25.50;11.97;;;6.60;99.90;;;;;;4455770;28;654304;-69
2022/04/20 12:34:21;;;;;;;26.00;13.07;;;6.50;99.90;;;;;;4437666;28;653240;-69
2022/04/20 12:37:15;;;;;;;21.70;12.00;;;6.40;99.90;;;;;;4435104;28;654024;-68
2022/04/20 12:40:23;;;;;;;25.07;12.27;;;6.40;99.90;;;;;;4402487;28;653879;-68
2022/04/20 12:43:13;;;;;;;17.87;10.97;;;6.50;99.90;;;;;;4421547;28;653766;-68
2022/04/20 12:46:13;;;;;;;9.73;5.47;;;6.50;99.90;;;;;;4435977;28;653879;-68
2022/04/20 12:49:01;;;;;;;22.30;12.88;;;6.40;99.90;;;;;;4408201;28;651205;-68
2022/04/20 12:51:48;;;;;;;23.93;13.10;;;6.40;99.90;;;;;;4448401;28;653990;-69
2022/04/20 12:54:35;;;;;;;21.43;12.70;;;6.50;99.90;;;;;;4431494;28;653117;-69
2022/04/20 13:03:39;;;;;;;22.47;12.60;;;6.50;99.90;;;;;;4426537;28;653763;-68
2022/04/20 13:06:27;;;;;;;23.13;12.10;;;6.40;99.90;;;;;;4436169;28;653298;-68
2022/04/20 13:09:14;;;;;;;20.17;11.77;;;6.40;99.90;;;;;;4453920;28;653090;-68
2022/04/20 13:12:01;;;;;;;22.43;12.37;;;6.40;99.90;;;;;;4432311;28;653242;-68
2022/04/20 13:14:50;;;;;;;22.43;12.13;;;6.40;99.90;;;;;;4452354;28;654071;-69
2022/04/20 13:17:38;;;;;;;22.60;12.33;;;6.40;99.90;;;;;;4427451;28;653730;-68
2022/04/20 13:20:27;;;;;;;23.48;12.48;;;6.50;99.90;;;;;;4433025;28;653677;-68
2022/04/20 13:23:14;;;;;;;18.57;9.00;;;6.50;99.90;;;;;;4454938;28;653738;-68
2022/04/20 13:29:06;;;;;;;22.63;12.83;;;6.40;99.90;;;;;;4427762;28;654333;-68
2022/04/20 13:31:56;;;;;;;21.80;12.50;;;6.40;99.90;;;;;;4446732;28;655625;-68
2022/04/20 13:34:43;;;;;;;19.47;12.37;;;6.20;99.90;;;;;;4410965;28;655463;-68
2022/04/20 13:37:30;;;;;;;23.03;12.70;;;6.30;99.90;;;;;;4412392;28;654253;-68
2022/04/20 13:40:18;;;;;;;23.20;11.80;;;6.30;99.90;;;;;;4446163;28;655357;-68
2022/04/20 13:43:05;;;;;;;19.23;11.57;;;6.30;99.90;;;;;;4429434;28;654636;-69
2022/04/20 13:45:53;;;;;;;23.80;12.00;;;6.20;99.90;;;;;;4441057;28;655601;-69
2022/04/20 13:48:42;;;;;;;22.00;12.37;;;6.30;99.90;;;;;;4430514;28;655035;-69
2022/04/20 13:51:29;;;;;;;22.97;12.97;;;6.20;99.90;;;;;;4446456;28;654891;-68
2022/04/20 13:54:16;;;;;;;24.27;12.47;;;6.20;99.90;;;;;;4431198;28;654334;-68
2022/04/20 13:57:04;;;;;;;19.73;11.80;;;6.20;99.90;;;;;;4449361;28;654914;-69
2022/04/20 13:59:52;;;;;;;18.77;11.07;;;6.20;99.90;;;;;;4430846;28;654260;-69
2022/04/20 14:02:39;;;;;;;24.80;12.53;;;6.20;99.90;;;;;;4446336;28;655721;-69
2022/04/20 14:05:28;;;;;;;25.20;13.43;;;6.20;99.90;;;;;;4422420;28;654528;-69
2022/04/20 14:08:16;;;;;;;22.97;12.23;;;6.20;99.90;;;;;;4430315;28;654552;-69
2022/04/20 14:11:03;;;;;;;30.45;13.48;;;6.10;99.90;;;;;;4450233;28;654969;-68
2022/04/20 14:13:52;;;;;;;22.07;12.67;;;6.20;99.90;;;;;;4429978;28;654716;-68
2022/04/20 14:16:41;;;;;;;24.80;13.20;;;6.00;99.90;;;;;;4451840;28;655007;-68
2022/04/20 14:19:28;;;;;;;22.33;13.87;;;6.10;99.90;;;;;;4430780;28;655113;-69
2022/04/20 14:22:17;;;;;;;24.90;13.97;;;6.10;99.90;;;;;;4432536;28;655130;-68
2022/04/20 14:34:26;;;;;;;24.90;13.80;;;6.10;99.90;;;;;;4410349;28;654745;-68
2022/04/20 14:37:13;;;;;;;21.80;13.90;;;6.10;99.90;;;;;;4441121;28;655189;-69
2022/04/20 14:40:02;;;;;;;27.63;13.77;;;6.10;99.90;;;;;;4423403;28;654250;-68
2022/04/20 14:42:49;;;;;;;19.53;12.73;;;6.20;99.90;;;;;;4457733;28;655044;-69
2022/04/20 14:45:37;;;;;;;27.97;14.73;;;6.10;99.90;;;;;;4431128;28;654240;-68
2022/04/20 14:48:25;;;;;;;28.77;14.70;;;6.10;99.90;;;;;;4454010;28;653834;-68
2022/04/20 14:54:42;;;;;;;21.00;13.80;;;6.10;99.90;;;;;;4410099;28;654692;-68
2022/04/20 14:57:51;;;;;;;22.43;13.30;;;6.10;99.90;;;;;;4448007;28;654416;-68
2022/04/20 15:00:40;;;;;;;20.60;11.93;;;6.00;99.90;;;;;;4431412;28;654649;-68
2022/04/20 15:03:27;;;;;;;21.43;12.23;;;6.00;99.90;;;;;;4427630;28;655328;-68
2022/04/20 15:06:16;;;;;;;18.43;12.10;;;6.10;99.90;;;;;;4456364;28;654498;-68
2022/04/20 15:09:09;;;;;;;27.53;13.07;;;6.10;99.90;;;;;;4421029;28;655528;-68
2022/04/20 15:11:57;;;;;;;22.80;13.47;;;6.00;99.90;;;;;;4404885;28;655548;-67